sensor_id;sensor_type;location;lat;lon;timestamp;P1;durP1;ratioP1;P2;durP2;ratioP2
37425;SDS011;23285;50.180;7.036;2023-03-05T00:00:21;6.63;;;3.67;;
37425;SDS011;23285;50.180;7.036;2023-03-05T00:03:07;5.57;;;3.70;;
37425;SDS011;23285;50.180;7.036;2023-03-05T00:05:55;5.50;;;3.70;;
37425;SDS011;23285;50.180;7.036;2023-03-05T00:08:41;6.20;;;3.60;;
37425;SDS011;23285;50.180;7.036;2023-03-05T00:11:28;9.37;;;3.60;;
37425;SDS011;23285;50.180;7.036;2023-03-05T00:14:18;5.57;;;3.67;;
37425;SDS011;23285;50.180;7.036;2023-03-05T00:17:04;6.63;;;3.83;;
37425;SDS011;23285;50.180;7.036;2023-03-05T00:19:51;8.27;;;3.40;;
37425;SDS011;23285;50.180;7.036;2023-03-05T00:22:37;8.40;;;3.93;;
37425;SDS011;23285;50.180;7.036;2023-03-05T00:25:23;6.37;;;3.57;;
37425;SDS011;23285;50.180;7.036;2023-03-05T00:28:09;7.93;;;4.00;;
37425;SDS011;23285;50.180;7.036;2023-03-05T00:30:59;8.67;;;3.63;;
37425;SDS011;23285;50.180;7.036;2023-03-05T00:33:50;6.07;;;3.50;;
37425;SDS011;23285;50.180;7.036;2023-03-05T00:36:38;6.70;;;3.93;;
37425;SDS011;23285;50.180;7.036;2023-03-05T00:39:24;7.83;;;3.60;;
37425;SDS011;23285;50.180;7.036;2023-03-05T00:42:11;5.67;;;3.50;;
37425;SDS011;23285;50.180;7.036;2023-03-05T00:44:57;8.47;;;3.60;;
37425;SDS011;23285;50.180;7.036;2023-03-05T00:47:45;6.93;;;3.63;;
37425;SDS011;23285;50.180;7.036;2023-03-05T00:50:31;8.97;;;3.80;;
37425;SDS011;23285;50.180;7.036;2023-03-05T00:53:18;7.70;;;3.50;;
37425;SDS011;23285;50.180;7.036;2023-03-05T00:56:05;10.03;;;3.57;;
37425;SDS011;23285;50.180;7.036;2023-03-05T00:58:51;5.30;;;3.37;;
37425;SDS011;23285;50.180;7.036;2023-03-05T01:01:38;7.80;;;3.70;;
37425;SDS011;23285;50.180;7.036;2023-03-05T01:04:26;8.80;;;3.80;;
37425;SDS011;23285;50.180;7.036;2023-03-05T01:07:12;6.33;;;3.77;;
37425;SDS011;23285;50.180;7.036;2023-03-05T01:09:59;9.87;;;3.80;;
37425;SDS011;23285;50.180;7.036;2023-03-05T01:12:46;7.20;;;3.77;;
37425;SDS011;23285;50.180;7.036;2023-03-05T01:15:32;7.83;;;3.53;;
37425;SDS011;23285;50.180;7.036;2023-03-05T01:18:19;8.17;;;3.47;;
37425;SDS011;23285;50.180;7.036;2023-03-05T01:21:07;4.97;;;3.27;;
37425;SDS011;23285;50.180;7.036;2023-03-05T01:23:54;7.87;;;4.40;;
37425;SDS011;23285;50.180;7.036;2023-03-05T01:26:41;6.03;;;3.53;;
37425;SDS011;23285;50.180;7.036;2023-03-05T01:29:28;7.17;;;3.93;;
37425;SDS011;23285;50.180;7.036;2023-03-05T01:32:14;8.07;;;3.63;;
37425;SDS011;23285;50.180;7.036;2023-03-05T01:35:01;6.90;;;3.70;;
37425;SDS011;23285;50.180;7.036;2023-03-05T01:37:49;8.57;;;3.67;;
37425;SDS011;23285;50.180;7.036;2023-03-05T01:40:35;7.60;;;3.37;;
37425;SDS011;23285;50.180;7.036;2023-03-05T01:43:22;6.30;;;3.30;;
37425;SDS011;23285;50.180;7.036;2023-03-05T01:49:15;7.03;;;3.47;;
37425;SDS011;23285;50.180;7.036;2023-03-05T01:52:05;7.33;;;3.73;;
37425;SDS011;23285;50.180;7.036;2023-03-05T01:54:56;10.90;;;4.37;;
37425;SDS011;23285;50.180;7.036;2023-03-05T01:57:45;10.23;;;3.93;;
37425;SDS011;23285;50.180;7.036;2023-03-05T02:00:37;6.87;;;3.90;;
37425;SDS011;23285;50.180;7.036;2023-03-05T02:03:27;8.83;;;3.77;;
37425;SDS011;23285;50.180;7.036;2023-03-05T02:06:14;7.20;;;4.00;;
37425;SDS011;23285;50.180;7.036;2023-03-05T02:09:00;10.43;;;3.70;;
37425;SDS011;23285;50.180;7.036;2023-03-05T02:11:48;6.87;;;3.80;;
37425;SDS011;23285;50.180;7.036;2023-03-05T02:14:35;6.63;;;3.90;;
37425;SDS011;23285;50.180;7.036;2023-03-05T02:17:22;9.00;;;4.37;;
37425;SDS011;23285;50.180;7.036;2023-03-05T02:20:12;7.13;;;3.60;;
37425;SDS011;23285;50.180;7.036;2023-03-05T02:23:00;9.30;;;4.33;;
37425;SDS011;23285;50.180;7.036;2023-03-05T02:25:47;6.30;;;3.80;;
37425;SDS011;23285;50.180;7.036;2023-03-05T02:28:34;15.43;;;4.13;;
37425;SDS011;23285;50.180;7.036;2023-03-05T02:31:25;5.10;;;3.50;;
37425;SDS011;23285;50.180;7.036;2023-03-05T02:34:12;7.57;;;3.83;;
37425;SDS011;23285;50.180;7.036;2023-03-05T02:36:58;7.07;;;3.53;;
37425;SDS011;23285;50.180;7.036;2023-03-05T02:39:49;4.37;;;3.50;;
37425;SDS011;23285;50.180;7.036;2023-03-05T02:42:36;4.73;;;3.53;;
37425;SDS011;23285;50.180;7.036;2023-03-05T02:45:22;9.13;;;3.70;;
37425;SDS011;23285;50.180;7.036;2023-03-05T02:48:08;5.03;;;3.47;;
37425;SDS011;23285;50.180;7.036;2023-03-05T02:50:55;5.30;;;3.37;;
37425;SDS011;23285;50.180;7.036;2023-03-05T02:53:42;7.00;;;3.67;;
37425;SDS011;23285;50.180;7.036;2023-03-05T02:56:30;5.67;;;3.00;;
37425;SDS011;23285;50.180;7.036;2023-03-05T02:59:18;5.30;;;3.20;;
37425;SDS011;23285;50.180;7.036;2023-03-05T03:02:04;8.30;;;3.80;;
37425;SDS011;23285;50.180;7.036;2023-03-05T03:04:51;7.07;;;3.17;;
37425;SDS011;23285;50.180;7.036;2023-03-05T03:07:37;6.60;;;3.53;;
37425;SDS011;23285;50.180;7.036;2023-03-05T03:10:24;5.70;;;3.57;;
37425;SDS011;23285;50.180;7.036;2023-03-05T03:13:12;8.27;;;3.27;;
37425;SDS011;23285;50.180;7.036;2023-03-05T03:16:02;8.40;;;3.63;;
37425;SDS011;23285;50.180;7.036;2023-03-05T03:18:49;8.97;;;4.57;;
37425;SDS011;23285;50.180;7.036;2023-03-05T03:21:35;5.97;;;4.03;;
37425;SDS011;23285;50.180;7.036;2023-03-05T03:24:21;8.77;;;4.80;;
37425;SDS011;23285;50.180;7.036;2023-03-05T03:27:08;7.90;;;3.90;;
37425;SDS011;23285;50.180;7.036;2023-03-05T03:29:56;8.50;;;4.53;;
37425;SDS011;23285;50.180;7.036;2023-03-05T03:32:46;11.20;;;6.40;;
37425;SDS011;23285;50.180;7.036;2023-03-05T03:35:32;12.10;;;7.27;;
37425;SDS011;23285;50.180;7.036;2023-03-05T03:38:19;9.40;;;6.43;;
37425;SDS011;23285;50.180;7.036;2023-03-05T03:41:05;11.00;;;6.43;;
37425;SDS011;23285;50.180;7.036;2023-03-05T03:43:52;12.53;;;7.70;;
37425;SDS011;23285;50.180;7.036;2023-03-05T03:46:40;13.50;;;7.43;;
37425;SDS011;23285;50.180;7.036;2023-03-05T03:49:27;10.23;;;6.53;;
37425;SDS011;23285;50.180;7.036;2023-03-05T03:52:14;12.47;;;8.27;;
37425;SDS011;23285;50.180;7.036;2023-03-05T03:55:01;12.17;;;6.90;;
37425;SDS011;23285;50.180;7.036;2023-03-05T03:57:47;13.97;;;7.37;;
37425;SDS011;23285;50.180;7.036;2023-03-05T04:00:34;11.53;;;7.00;;
37425;SDS011;23285;50.180;7.036;2023-03-05T04:03:22;9.77;;;6.73;;
37425;SDS011;23285;50.180;7.036;2023-03-05T04:06:08;10.03;;;6.80;;
37425;SDS011;23285;50.180;7.036;2023-03-05T04:08:54;11.87;;;6.93;;
37425;SDS011;23285;50.180;7.036;2023-03-05T04:11:41;9.80;;;6.30;;
37425;SDS011;23285;50.180;7.036;2023-03-05T04:14:27;12.33;;;6.97;;
37425;SDS011;23285;50.180;7.036;2023-03-05T04:17:13;9.73;;;6.63;;
37425;SDS011;23285;50.180;7.036;2023-03-05T04:20:02;9.83;;;6.40;;
37425;SDS011;23285;50.180;7.036;2023-03-05T04:22:50;8.27;;;6.70;;
37425;SDS011;23285;50.180;7.036;2023-03-05T04:25:36;13.53;;;7.23;;
37425;SDS011;23285;50.180;7.036;2023-03-05T04:28:23;13.47;;;7.47;;
37425;SDS011;23285;50.180;7.036;2023-03-05T04:31:09;10.43;;;7.37;;
37425;SDS011;23285;50.180;7.036;2023-03-05T04:33:56;11.30;;;7.27;;
37425;SDS011;23285;50.180;7.036;2023-03-05T04:36:43;11.80;;;6.70;;
37425;SDS011;23285;50.180;7.036;2023-03-05T04:39:30;10.47;;;7.13;;
37425;SDS011;23285;50.180;7.036;2023-03-05T04:42:16;11.23;;;7.60;;
37425;SDS011;23285;50.180;7.036;2023-03-05T04:45:03;9.83;;;6.57;;
37425;SDS011;23285;50.180;7.036;2023-03-05T04:47:51;9.53;;;6.20;;
37425;SDS011;23285;50.180;7.036;2023-03-05T04:50:37;9.50;;;6.20;;
37425;SDS011;23285;50.180;7.036;2023-03-05T04:53:25;8.97;;;6.40;;
37425;SDS011;23285;50.180;7.036;2023-03-05T04:56:12;10.13;;;6.40;;
37425;SDS011;23285;50.180;7.036;2023-03-05T04:58:58;9.27;;;6.50;;
37425;SDS011;23285;50.180;7.036;2023-03-05T05:01:45;10.17;;;6.97;;
37425;SDS011;23285;50.180;7.036;2023-03-05T05:04:31;8.43;;;6.57;;
37425;SDS011;23285;50.180;7.036;2023-03-05T05:07:19;9.23;;;6.13;;
37425;SDS011;23285;50.180;7.036;2023-03-05T05:10:07;10.30;;;6.50;;
37425;SDS011;23285;50.180;7.036;2023-03-05T05:12:54;9.40;;;6.20;;
37425;SDS011;23285;50.180;7.036;2023-03-05T05:15:41;7.63;;;5.83;;
37425;SDS011;23285;50.180;7.036;2023-03-05T05:18:27;10.77;;;6.77;;
37425;SDS011;23285;50.180;7.036;2023-03-05T05:21:14;10.17;;;6.30;;
37425;SDS011;23285;50.180;7.036;2023-03-05T05:24:02;7.43;;;5.40;;
37425;SDS011;23285;50.180;7.036;2023-03-05T05:26:50;8.73;;;6.23;;
37425;SDS011;23285;50.180;7.036;2023-03-05T05:29:38;9.40;;;6.27;;
37425;SDS011;23285;50.180;7.036;2023-03-05T05:32:24;8.60;;;6.10;;
37425;SDS011;23285;50.180;7.036;2023-03-05T05:35:11;11.37;;;5.97;;
37425;SDS011;23285;50.180;7.036;2023-03-05T05:37:57;10.67;;;6.40;;
37425;SDS011;23285;50.180;7.036;2023-03-05T05:40:43;9.47;;;6.13;;
37425;SDS011;23285;50.180;7.036;2023-03-05T05:43:31;9.47;;;5.87;;
37425;SDS011;23285;50.180;7.036;2023-03-05T05:46:18;7.77;;;6.03;;
37425;SDS011;23285;50.180;7.036;2023-03-05T05:49:05;9.87;;;5.57;;
37425;SDS011;23285;50.180;7.036;2023-03-05T05:51:51;8.47;;;6.10;;
37425;SDS011;23285;50.180;7.036;2023-03-05T05:54:37;10.27;;;6.83;;
37425;SDS011;23285;50.180;7.036;2023-03-05T05:57:24;9.03;;;6.87;;
37425;SDS011;23285;50.180;7.036;2023-03-05T06:00:14;8.97;;;5.77;;
37425;SDS011;23285;50.180;7.036;2023-03-05T06:03:01;10.80;;;6.63;;
37425;SDS011;23285;50.180;7.036;2023-03-05T06:05:48;10.93;;;6.67;;
37425;SDS011;23285;50.180;7.036;2023-03-05T06:08:36;9.43;;;6.27;;
37425;SDS011;23285;50.180;7.036;2023-03-05T06:11:23;10.33;;;6.30;;
37425;SDS011;23285;50.180;7.036;2023-03-05T06:14:09;7.50;;;6.00;;
37425;SDS011;23285;50.180;7.036;2023-03-05T06:16:58;11.73;;;7.30;;
37425;SDS011;23285;50.180;7.036;2023-03-05T06:19:44;11.37;;;6.93;;
37425;SDS011;23285;50.180;7.036;2023-03-05T06:22:31;13.07;;;7.07;;
37425;SDS011;23285;50.180;7.036;2023-03-05T06:25:20;11.33;;;6.77;;
37425;SDS011;23285;50.180;7.036;2023-03-05T06:28:06;10.87;;;6.90;;
37425;SDS011;23285;50.180;7.036;2023-03-05T06:30:58;7.33;;;5.40;;
37425;SDS011;23285;50.180;7.036;2023-03-05T06:33:46;10.87;;;6.27;;
37425;SDS011;23285;50.180;7.036;2023-03-05T06:36:33;8.47;;;5.73;;
37425;SDS011;23285;50.180;7.036;2023-03-05T06:39:19;7.90;;;5.83;;
37425;SDS011;23285;50.180;7.036;2023-03-05T06:42:06;9.10;;;6.40;;
37425;SDS011;23285;50.180;7.036;2023-03-05T06:44:53;9.47;;;6.07;;
37425;SDS011;23285;50.180;7.036;2023-03-05T06:47:40;9.03;;;6.37;;
37425;SDS011;23285;50.180;7.036;2023-03-05T06:50:27;13.40;;;5.93;;
37425;SDS011;23285;50.180;7.036;2023-03-05T06:53:13;10.17;;;5.50;;
37425;SDS011;23285;50.180;7.036;2023-03-05T06:56:00;10.87;;;6.57;;
37425;SDS011;23285;50.180;7.036;2023-03-05T06:58:47;8.33;;;5.80;;
37425;SDS011;23285;50.180;7.036;2023-03-05T07:01:34;8.90;;;5.70;;
37425;SDS011;23285;50.180;7.036;2023-03-05T07:04:20;13.00;;;4.70;;
37425;SDS011;23285;50.180;7.036;2023-03-05T07:07:08;8.37;;;4.90;;
37425;SDS011;23285;50.180;7.036;2023-03-05T07:09:55;9.03;;;4.00;;
37425;SDS011;23285;50.180;7.036;2023-03-05T07:12:41;8.33;;;4.17;;
37425;SDS011;23285;50.180;7.036;2023-03-05T07:15:28;7.83;;;4.00;;
37425;SDS011;23285;50.180;7.036;2023-03-05T07:18:14;6.43;;;4.00;;
37425;SDS011;23285;50.180;7.036;2023-03-05T07:21:01;9.30;;;3.47;;
37425;SDS011;23285;50.180;7.036;2023-03-05T07:23:51;3.63;;;2.90;;
37425;SDS011;23285;50.180;7.036;2023-03-05T07:26:38;5.83;;;3.40;;
37425;SDS011;23285;50.180;7.036;2023-03-05T07:29:25;5.67;;;3.33;;
37425;SDS011;23285;50.180;7.036;2023-03-05T07:32:12;6.10;;;3.23;;
37425;SDS011;23285;50.180;7.036;2023-03-05T07:34:59;9.97;;;4.27;;
37425;SDS011;23285;50.180;7.036;2023-03-05T07:37:45;6.40;;;4.00;;
37425;SDS011;23285;50.180;7.036;2023-03-05T07:40:34;5.97;;;3.33;;
37425;SDS011;23285;50.180;7.036;2023-03-05T07:43:20;5.57;;;3.53;;
37425;SDS011;23285;50.180;7.036;2023-03-05T07:46:07;6.13;;;3.43;;
37425;SDS011;23285;50.180;7.036;2023-03-05T07:48:56;4.73;;;3.30;;
37425;SDS011;23285;50.180;7.036;2023-03-05T07:51:43;10.40;;;4.10;;
37425;SDS011;23285;50.180;7.036;2023-03-05T07:54:29;5.83;;;3.63;;
37425;SDS011;23285;50.180;7.036;2023-03-05T07:57:17;7.63;;;3.77;;
37425;SDS011;23285;50.180;7.036;2023-03-05T08:00:03;8.40;;;4.33;;
37425;SDS011;23285;50.180;7.036;2023-03-05T08:02:55;8.10;;;3.77;;
37425;SDS011;23285;50.180;7.036;2023-03-05T08:05:42;8.37;;;3.97;;
37425;SDS011;23285;50.180;7.036;2023-03-05T08:08:28;5.10;;;3.10;;
37425;SDS011;23285;50.180;7.036;2023-03-05T08:11:15;7.10;;;3.30;;
37425;SDS011;23285;50.180;7.036;2023-03-05T08:14:03;6.67;;;3.80;;
37425;SDS011;23285;50.180;7.036;2023-03-05T08:16:49;6.23;;;3.80;;
37425;SDS011;23285;50.180;7.036;2023-03-05T08:19:36;6.17;;;3.50;;
37425;SDS011;23285;50.180;7.036;2023-03-05T08:22:22;6.10;;;3.70;;
37425;SDS011;23285;50.180;7.036;2023-03-05T08:25:08;7.93;;;3.60;;
37425;SDS011;23285;50.180;7.036;2023-03-05T08:27:55;5.93;;;2.93;;
37425;SDS011;23285;50.180;7.036;2023-03-05T08:30:43;6.83;;;3.70;;
37425;SDS011;23285;50.180;7.036;2023-03-05T08:33:30;5.70;;;3.47;;
37425;SDS011;23285;50.180;7.036;2023-03-05T08:36:16;5.80;;;3.57;;
37425;SDS011;23285;50.180;7.036;2023-03-05T08:39:02;6.27;;;3.93;;
37425;SDS011;23285;50.180;7.036;2023-03-05T08:41:50;8.23;;;3.70;;
37425;SDS011;23285;50.180;7.036;2023-03-05T08:44:36;7.67;;;3.70;;
37425;SDS011;23285;50.180;7.036;2023-03-05T08:47:24;6.07;;;3.87;;
37425;SDS011;23285;50.180;7.036;2023-03-05T08:50:11;6.67;;;3.73;;
37425;SDS011;23285;50.180;7.036;2023-03-05T08:52:57;5.77;;;3.77;;
37425;SDS011;23285;50.180;7.036;2023-03-05T08:55:43;5.47;;;4.13;;
37425;SDS011;23285;50.180;7.036;2023-03-05T08:58:38;6.63;;;3.70;;
37425;SDS011;23285;50.180;7.036;2023-03-05T09:01:25;6.73;;;4.20;;
37425;SDS011;23285;50.180;7.036;2023-03-05T09:04:13;5.77;;;4.13;;
37425;SDS011;23285;50.180;7.036;2023-03-05T09:07:00;12.33;;;4.60;;
37425;SDS011;23285;50.180;7.036;2023-03-05T09:09:46;9.40;;;4.43;;
37425;SDS011;23285;50.180;7.036;2023-03-05T09:12:32;8.20;;;4.80;;
37425;SDS011;23285;50.180;7.036;2023-03-05T09:15:19;9.13;;;4.83;;
37425;SDS011;23285;50.180;7.036;2023-03-05T09:18:05;7.37;;;4.80;;
37425;SDS011;23285;50.180;7.036;2023-03-05T09:20:54;7.63;;;4.20;;
37425;SDS011;23285;50.180;7.036;2023-03-05T09:23:41;6.60;;;4.30;;
37425;SDS011;23285;50.180;7.036;2023-03-05T09:26:28;5.77;;;3.60;;
37425;SDS011;23285;50.180;7.036;2023-03-05T09:29:14;7.37;;;4.17;;
37425;SDS011;23285;50.180;7.036;2023-03-05T09:32:00;9.07;;;4.40;;
37425;SDS011;23285;50.180;7.036;2023-03-05T09:34:46;5.10;;;3.87;;
37425;SDS011;23285;50.180;7.036;2023-03-05T09:37:34;6.73;;;3.50;;
37425;SDS011;23285;50.180;7.036;2023-03-05T09:40:21;6.50;;;4.60;;
37425;SDS011;23285;50.180;7.036;2023-03-05T09:43:10;6.10;;;4.17;;
37425;SDS011;23285;50.180;7.036;2023-03-05T09:46:12;6.63;;;4.40;;
37425;SDS011;23285;50.180;7.036;2023-03-05T09:49:03;9.53;;;4.70;;
37425;SDS011;23285;50.180;7.036;2023-03-05T09:52:01;7.03;;;4.27;;
37425;SDS011;23285;50.180;7.036;2023-03-05T09:54:53;6.87;;;4.33;;
37425;SDS011;23285;50.180;7.036;2023-03-05T09:57:41;6.10;;;3.93;;
37425;SDS011;23285;50.180;7.036;2023-03-05T10:00:32;4.67;;;4.10;;
37425;SDS011;23285;50.180;7.036;2023-03-05T10:03:24;5.63;;;4.10;;
37425;SDS011;23285;50.180;7.036;2023-03-05T10:06:13;7.37;;;4.10;;
37425;SDS011;23285;50.180;7.036;2023-03-05T10:09:03;7.77;;;4.07;;
37425;SDS011;23285;50.180;7.036;2023-03-05T10:11:53;4.53;;;3.57;;
37425;SDS011;23285;50.180;7.036;2023-03-05T10:14:41;9.17;;;4.00;;
37425;SDS011;23285;50.180;7.036;2023-03-05T10:20:48;4.20;;;3.53;;
37425;SDS011;23285;50.180;7.036;2023-03-05T10:23:44;5.97;;;4.07;;
37425;SDS011;23285;50.180;7.036;2023-03-05T10:26:48;4.73;;;3.90;;
37425;SDS011;23285;50.180;7.036;2023-03-05T10:29:52;6.60;;;4.67;;
37425;SDS011;23285;50.180;7.036;2023-03-05T10:32:43;4.83;;;3.83;;
37425;SDS011;23285;50.180;7.036;2023-03-05T10:35:42;3.97;;;3.07;;
37425;SDS011;23285;50.180;7.036;2023-03-05T10:38:38;5.43;;;3.30;;
37425;SDS011;23285;50.180;7.036;2023-03-05T10:41:45;3.77;;;2.40;;
37425;SDS011;23285;50.180;7.036;2023-03-05T10:44:42;3.13;;;2.33;;
37425;SDS011;23285;50.180;7.036;2023-03-05T10:47:34;5.00;;;2.30;;
37425;SDS011;23285;50.180;7.036;2023-03-05T10:50:23;3.77;;;2.67;;
37425;SDS011;23285;50.180;7.036;2023-03-05T10:53:14;3.40;;;2.83;;
37425;SDS011;23285;50.180;7.036;2023-03-05T10:56:09;2.90;;;2.60;;
37425;SDS011;23285;50.180;7.036;2023-03-05T10:58:56;4.67;;;3.27;;
37425;SDS011;23285;50.180;7.036;2023-03-05T11:01:44;3.43;;;1.83;;
37425;SDS011;23285;50.180;7.036;2023-03-05T11:04:48;1.90;;;1.63;;
37425;SDS011;23285;50.180;7.036;2023-03-05T11:07:36;1.77;;;1.60;;
37425;SDS011;23285;50.180;7.036;2023-03-05T11:10:23;2.97;;;2.17;;
37425;SDS011;23285;50.180;7.036;2023-03-05T11:13:18;3.10;;;2.20;;
37425;SDS011;23285;50.180;7.036;2023-03-05T11:16:15;3.13;;;2.33;;
37425;SDS011;23285;50.180;7.036;2023-03-05T11:22:07;3.23;;;2.57;;
37425;SDS011;23285;50.180;7.036;2023-03-05T11:25:12;3.17;;;2.30;;
37425;SDS011;23285;50.180;7.036;2023-03-05T11:28:02;3.33;;;2.33;;
37425;SDS011;23285;50.180;7.036;2023-03-05T11:30:53;3.07;;;2.73;;
37425;SDS011;23285;50.180;7.036;2023-03-05T11:33:52;2.83;;;2.43;;
37425;SDS011;23285;50.180;7.036;2023-03-05T11:36:41;3.77;;;2.47;;
37425;SDS011;23285;50.180;7.036;2023-03-05T11:39:29;4.57;;;2.80;;
37425;SDS011;23285;50.180;7.036;2023-03-05T11:42:18;6.43;;;3.10;;
37425;SDS011;23285;50.180;7.036;2023-03-05T11:45:13;5.53;;;3.30;;
37425;SDS011;23285;50.180;7.036;2023-03-05T11:48:03;3.50;;;3.20;;
37425;SDS011;23285;50.180;7.036;2023-03-05T11:50:52;4.43;;;3.30;;
37425;SDS011;23285;50.180;7.036;2023-03-05T11:53:43;3.83;;;3.30;;
37425;SDS011;23285;50.180;7.036;2023-03-05T11:56:32;4.77;;;3.67;;
37425;SDS011;23285;50.180;7.036;2023-03-05T11:59:19;3.40;;;3.07;;
37425;SDS011;23285;50.180;7.036;2023-03-05T12:02:14;4.00;;;3.40;;
37425;SDS011;23285;50.180;7.036;2023-03-05T12:05:02;4.30;;;3.00;;
37425;SDS011;23285;50.180;7.036;2023-03-05T12:07:51;4.60;;;3.17;;
37425;SDS011;23285;50.180;7.036;2023-03-05T12:10:44;3.63;;;3.13;;
37425;SDS011;23285;50.180;7.036;2023-03-05T12:13:31;3.37;;;3.07;;
37425;SDS011;23285;50.180;7.036;2023-03-05T12:16:25;4.93;;;3.13;;
37425;SDS011;23285;50.180;7.036;2023-03-05T12:19:22;3.87;;;3.43;;
37425;SDS011;23285;50.180;7.036;2023-03-05T12:22:21;2.70;;;2.33;;
37425;SDS011;23285;50.180;7.036;2023-03-05T12:25:20;3.50;;;3.03;;
37425;SDS011;23285;50.180;7.036;2023-03-05T12:28:13;3.13;;;2.40;;
37425;SDS011;23285;50.180;7.036;2023-03-05T12:31:03;3.77;;;2.20;;
37425;SDS011;23285;50.180;7.036;2023-03-05T12:33:51;3.20;;;2.30;;
37425;SDS011;23285;50.180;7.036;2023-03-05T12:36:37;3.60;;;2.37;;
37425;SDS011;23285;50.180;7.036;2023-03-05T12:39:40;2.30;;;2.10;;
37425;SDS011;23285;50.180;7.036;2023-03-05T12:45:43;2.63;;;1.80;;
37425;SDS011;23285;50.180;7.036;2023-03-05T12:48:33;3.73;;;1.90;;
37425;SDS011;23285;50.180;7.036;2023-03-05T12:51:28;4.60;;;2.30;;
37425;SDS011;23285;50.180;7.036;2023-03-05T12:54:25;2.90;;;2.30;;
37425;SDS011;23285;50.180;7.036;2023-03-05T12:57:16;2.30;;;1.90;;
37425;SDS011;23285;50.180;7.036;2023-03-05T13:00:05;3.40;;;2.10;;
37425;SDS011;23285;50.180;7.036;2023-03-05T13:02:58;2.17;;;2.00;;
37425;SDS011;23285;50.180;7.036;2023-03-05T13:05:49;2.40;;;2.03;;
37425;SDS011;23285;50.180;7.036;2023-03-05T13:08:37;4.23;;;2.10;;
37425;SDS011;23285;50.180;7.036;2023-03-05T13:11:23;2.60;;;1.60;;
37425;SDS011;23285;50.180;7.036;2023-03-05T13:17:33;2.67;;;2.30;;
37425;SDS011;23285;50.180;7.036;2023-03-05T13:20:25;3.67;;;2.27;;
37425;SDS011;23285;50.180;7.036;2023-03-05T13:23:19;2.97;;;2.27;;
37425;SDS011;23285;50.180;7.036;2023-03-05T13:26:10;3.33;;;2.10;;
37425;SDS011;23285;50.180;7.036;2023-03-05T13:29:04;3.63;;;2.30;;
37425;SDS011;23285;50.180;7.036;2023-03-05T13:31:51;5.13;;;2.00;;
37425;SDS011;23285;50.180;7.036;2023-03-05T13:34:42;3.30;;;2.03;;
37425;SDS011;23285;50.180;7.036;2023-03-05T13:37:32;4.00;;;2.13;;
37425;SDS011;23285;50.180;7.036;2023-03-05T13:40:21;2.57;;;2.23;;
37425;SDS011;23285;50.180;7.036;2023-03-05T13:43:08;3.17;;;2.00;;
37425;SDS011;23285;50.180;7.036;2023-03-05T13:45:57;1.90;;;1.77;;
37425;SDS011;23285;50.180;7.036;2023-03-05T13:48:44;2.70;;;2.20;;
37425;SDS011;23285;50.180;7.036;2023-03-05T13:51:39;3.17;;;2.27;;
37425;SDS011;23285;50.180;7.036;2023-03-05T13:54:28;3.93;;;2.00;;
37425;SDS011;23285;50.180;7.036;2023-03-05T13:57:30;4.07;;;2.03;;
37425;SDS011;23285;50.180;7.036;2023-03-05T14:00:27;2.43;;;1.90;;
37425;SDS011;23285;50.180;7.036;2023-03-05T14:03:19;2.10;;;1.90;;
37425;SDS011;23285;50.180;7.036;2023-03-05T14:06:07;2.33;;;2.00;;
37425;SDS011;23285;50.180;7.036;2023-03-05T14:08:56;3.53;;;2.10;;
37425;SDS011;23285;50.180;7.036;2023-03-05T14:12:01;2.70;;;2.30;;
37425;SDS011;23285;50.180;7.036;2023-03-05T14:14:49;2.40;;;2.20;;
37425;SDS011;23285;50.180;7.036;2023-03-05T14:17:37;2.57;;;2.20;;
37425;SDS011;23285;50.180;7.036;2023-03-05T14:20:25;3.47;;;2.10;;
37425;SDS011;23285;50.180;7.036;2023-03-05T14:23:25;2.80;;;2.30;;
37425;SDS011;23285;50.180;7.036;2023-03-05T14:26:19;2.70;;;2.43;;
37425;SDS011;23285;50.180;7.036;2023-03-05T14:29:13;3.40;;;2.30;;
37425;SDS011;23285;50.180;7.036;2023-03-05T14:32:02;2.53;;;2.33;;
37425;SDS011;23285;50.180;7.036;2023-03-05T14:34:50;3.30;;;2.20;;
37425;SDS011;23285;50.180;7.036;2023-03-05T14:37:40;3.87;;;2.53;;
37425;SDS011;23285;50.180;7.036;2023-03-05T14:40:29;4.50;;;2.40;;
37425;SDS011;23285;50.180;7.036;2023-03-05T14:43:16;2.43;;;2.00;;
37425;SDS011;23285;50.180;7.036;2023-03-05T14:46:04;2.50;;;2.30;;
37425;SDS011;23285;50.180;7.036;2023-03-05T14:48:50;3.60;;;2.20;;
37425;SDS011;23285;50.180;7.036;2023-03-05T14:51:38;3.23;;;2.80;;
37425;SDS011;23285;50.180;7.036;2023-03-05T14:54:27;4.27;;;2.60;;
37425;SDS011;23285;50.180;7.036;2023-03-05T14:57:17;4.30;;;2.70;;
37425;SDS011;23285;50.180;7.036;2023-03-05T15:00:09;2.63;;;2.43;;
37425;SDS011;23285;50.180;7.036;2023-03-05T15:03:03;3.10;;;2.80;;
37425;SDS011;23285;50.180;7.036;2023-03-05T15:05:51;3.07;;;2.60;;
37425;SDS011;23285;50.180;7.036;2023-03-05T15:08:39;4.10;;;2.97;;
37425;SDS011;23285;50.180;7.036;2023-03-05T15:11:25;3.80;;;2.73;;
37425;SDS011;23285;50.180;7.036;2023-03-05T15:14:12;2.53;;;2.33;;
37425;SDS011;23285;50.180;7.036;2023-03-05T15:16:59;6.77;;;2.80;;
37425;SDS011;23285;50.180;7.036;2023-03-05T15:19:46;2.67;;;2.43;;
37425;SDS011;23285;50.180;7.036;2023-03-05T15:22:33;4.30;;;2.67;;
37425;SDS011;23285;50.180;7.036;2023-03-05T15:25:19;4.03;;;2.57;;
37425;SDS011;23285;50.180;7.036;2023-03-05T15:28:07;4.53;;;2.50;;
37425;SDS011;23285;50.180;7.036;2023-03-05T15:30:53;4.97;;;2.73;;
37425;SDS011;23285;50.180;7.036;2023-03-05T15:33:39;3.43;;;2.80;;
37425;SDS011;23285;50.180;7.036;2023-03-05T15:36:27;4.90;;;2.97;;
37425;SDS011;23285;50.180;7.036;2023-03-05T15:39:14;5.53;;;3.37;;
37425;SDS011;23285;50.180;7.036;2023-03-05T15:42:00;3.33;;;3.00;;
37425;SDS011;23285;50.180;7.036;2023-03-05T15:44:46;4.57;;;2.73;;
37425;SDS011;23285;50.180;7.036;2023-03-05T15:47:33;4.47;;;2.80;;
37425;SDS011;23285;50.180;7.036;2023-03-05T15:50:20;3.13;;;2.80;;
37425;SDS011;23285;50.180;7.036;2023-03-05T15:53:08;3.30;;;2.60;;
37425;SDS011;23285;50.180;7.036;2023-03-05T15:55:59;3.60;;;3.13;;
37425;SDS011;23285;50.180;7.036;2023-03-05T15:58:46;4.33;;;2.83;;
37425;SDS011;23285;50.180;7.036;2023-03-05T16:01:33;3.53;;;3.20;;
37425;SDS011;23285;50.180;7.036;2023-03-05T16:04:20;4.70;;;3.50;;
37425;SDS011;23285;50.180;7.036;2023-03-05T16:07:06;4.03;;;3.50;;
37425;SDS011;23285;50.180;7.036;2023-03-05T16:09:54;5.93;;;3.30;;
37425;SDS011;23285;50.180;7.036;2023-03-05T16:12:42;4.93;;;3.00;;
37425;SDS011;23285;50.180;7.036;2023-03-05T16:15:29;4.13;;;3.00;;
37425;SDS011;23285;50.180;7.036;2023-03-05T16:18:18;4.13;;;3.43;;
37425;SDS011;23285;50.180;7.036;2023-03-05T16:21:05;4.07;;;3.00;;
37425;SDS011;23285;50.180;7.036;2023-03-05T16:23:51;3.40;;;3.10;;
37425;SDS011;23285;50.180;7.036;2023-03-05T16:26:39;3.87;;;3.33;;
37425;SDS011;23285;50.180;7.036;2023-03-05T16:29:26;3.73;;;3.33;;
37425;SDS011;23285;50.180;7.036;2023-03-05T16:32:15;5.70;;;3.00;;
37425;SDS011;23285;50.180;7.036;2023-03-05T16:35:02;3.97;;;3.33;;
37425;SDS011;23285;50.180;7.036;2023-03-05T16:37:49;3.60;;;3.13;;
37425;SDS011;23285;50.180;7.036;2023-03-05T16:40:36;3.80;;;3.40;;
37425;SDS011;23285;50.180;7.036;2023-03-05T16:43:23;3.73;;;3.30;;
37425;SDS011;23285;50.180;7.036;2023-03-05T16:46:10;6.23;;;3.13;;
37425;SDS011;23285;50.180;7.036;2023-03-05T16:48:57;3.47;;;3.03;;
37425;SDS011;23285;50.180;7.036;2023-03-05T16:51:44;3.73;;;3.33;;
37425;SDS011;23285;50.180;7.036;2023-03-05T16:54:30;3.50;;;3.20;;
37425;SDS011;23285;50.180;7.036;2023-03-05T16:57:17;4.13;;;3.67;;
37425;SDS011;23285;50.180;7.036;2023-03-05T17:00:09;3.77;;;2.83;;
37425;SDS011;23285;50.180;7.036;2023-03-05T17:02:56;4.27;;;3.20;;
37425;SDS011;23285;50.180;7.036;2023-03-05T17:05:42;3.83;;;3.20;;
37425;SDS011;23285;50.180;7.036;2023-03-05T17:08:29;4.00;;;3.37;;